AirNav   Pilot Hours Calculator
 
 404 users online  

0WA8 Childrens Hospital Emergency Heliport
Seattle, Washington, USA

GOING TO SEATTLE?


FAA INFORMATION EFFECTIVE 03 DECEMBER 2020

Location

FAA Identifier: 0WA8
Lat/Long: 47-39-45.4200N 122-17-01.3900W
47-39.757000N 122-17.023167W
47.6626167,-122.2837194
(estimated)
Elevation: 125 ft. / 38 m (estimated)
Variation: 20E (1990)
From city: 5 miles SE of SEATTLE, WA
Time zone: UTC -8 (UTC -7 during Daylight Saving Time)
Zip code: 98105

Heliport Operations

Heliport use: Private use, MEDICAL USE ONLY.
Activation date: 08/1993
Control tower: no
ARTCC: SEATTLE CENTER
FSS: SEATTLE FLIGHT SERVICE STATION
Attendance: CONTINUOUS
Wind indicator: yes
Segmented circle: no
Beacon: white-yellow (lighted seaplane base)
PHONE REQ

Heliport Communications

WX ASOS at BFI (8 nm S): PHONE 206-658-6435
WX ASOS at RNT (11 nm S): 126.95 (425-255-6080)
WX ASOS at SEA (13 nm S): PHONE 206-214-2592
WX ASOS at PAE (15 nm N): 128.65 (425-355-6192)

Nearby radio navigation aids

VOR radial/distance  VOR name  Freq  Var
SEAr345/13.7SEATTLE VORTAC116.8019E
PAEr161/15.4PAINE VOR/DME110.6020E
TCMr359/31.9MCCHORD VORTAC109.6015E
CVVr134/39.2PENN COVE VOR/DME117.2019E

Heliport Services

Runway Information

Helipad H1

Dimensions: 40 x 40 ft. / 12 x 12 m
Surface: concrete
Latitude: 47-39.757000N
Longitude: 122-17.023167W
Elevation: 125.0 ft.
Traffic pattern: leftleft

Heliport Ownership and Management from official FAA records

Ownership: Privately-owned
Owner: SEATTLE CHILDRENS HOSPITAL
ATTN: JESSE GIORDANO, 4800 SANDPOINT WAY NE
SEATTLE, WA 98105
Phone 206-987-2001
Manager: JEFFREY SPERRING CEO
4800 SANDPOINT WAY NE
SEATTLE, WA 98105
Phone 206-987-2001

Additional Remarks

FOR CD CTC SEATTLE APCH AT 206-214-4794.

Instrument Procedures

There are no published instrument procedures at 0WA8.

Some nearby airports with instrument procedures:

KBFI - Boeing Field/King County International Airport (8 nm S)
KRNT - Renton Municipal Airport (11 nm S)
KSEA - Seattle-Tacoma International Airport (13 nm S)
KPAE - Snohomish County Airport (Paine Field) (15 nm N)
S43 - Harvey Field Airport (16 nm NE)
 
Loc | Ops | Rwys | IFR | FBO | Links
Com | Nav | Svcs | Stats | Notes
Area around 0WA8 (Childrens Hospital Emergency Heliport)
 
Road maps at: MapQuest Bing Google
 
Aerial photo
No photo
 
Sectional chart

 
Airport distance calculator
Flying to Childrens Hospital Emergency Heliport? Find the distance to fly.

From to 0WA8

Sunrise and sunset
Times for 03-Dec-2020
 Local
(UTC-8)
 Zulu
(UTC)
Morning civil twilight07:0615:06
Sunrise07:4115:41
Sunset16:1700:17
Evening civil twilight16:5300:53

Current date and time
Zulu (UTC)  03-Dec-2020 10:43:21
Local (UTC-8)  03-Dec-2020 02:43:21
 
METAR
KBFI 
7nm S 
030953Z 00000KT 10SM CLR 01/M01 A3023 RMK AO2 SLP236 T00111006 $
KRNT 
10nm S 
030953Z AUTO 00000KT 10SM CLR 03/01 A3023 RMK AO2 SLP240 T00280006
KSEA 
13nm S 
030953Z 23003KT 10SM BKN250 04/02 A3022 RMK AO2 SLP239 T00440017
KPAE 
15nm N 
030953Z AUTO 00000KT 10SM CLR 04/M04 A3022 RMK AO2 SLP237 T00441039
TAF
KBFI 
7nm S 
030520Z 0306/0406 00000KT P6SM BKN250 FM031200 15003KT P6SM BKN120 BKN250 FM040000 VRB03KT P6SM BKN070 BKN150
KSEA 
13nm S 
030904Z 0309/0412 16006KT P6SM SCT250 FM031200 12006KT P6SM BKN120 BKN250 FM040000 VRB03KT P6SM BKN070 BKN150
KPAE 
15nm N 
030520Z 0306/0406 12003KT P6SM BKN250 FM031200 13004KT P6SM BKN120 BKN250 FM032100 16003KT P6SM SCT070 OVC110
NOTAMs
Click for the latest NOTAMs
NOTAMs are issued by the DoD/FAA and will open in a separate window not controlled by AirNav.

 

 
 

Would you like to see your business listed on this page?

 If your business provides an interesting product or service to pilots, flight crews, aircraft, or users of the Childrens Hospital Emergency Heliport, you should consider listing it here.  To start the listing process, click on the button below
 
Add a business
 

Other Pages about Childrens Hospital Emergency Heliport

Update a link
 
Copyright © AirNav, LLC. All rights reserved. Privacy Policy  Contact